BCM weather

Bacău Airport
Bacău, Bacău, Romania

Public forecast

Using degrees Celsius for public forecast. Weather courtesy of forecast.io.

METAR (pilot weather report)

Retrieved 2019/08/22 17:30 UTC (0 seconds ago):

LRBC 221730Z 35009KT CAVOK 23/16 Q1024

TAF (pilot weather forecast)

Forecast is more than 12 hours old.

Retrieved 2010/08/31 20:30 UTC (9 years ago):

TAF LRBC 312030Z 3121/0203 CNL